createdAt,value
2022-09-01T00:02:20.060Z,0.40
2022-09-01T00:04:47.608Z,0.20
2022-09-01T00:07:15.051Z,0.77
2022-09-01T00:09:41.835Z,0.38
2022-09-01T00:12:09.578Z,1.05
2022-09-01T00:14:41.529Z,0.43
2022-09-01T00:17:10.487Z,0.30
2022-09-01T00:19:37.627Z,0.40
2022-09-01T00:22:04.507Z,1.08
2022-09-01T00:24:31.518Z,0.52
2022-09-01T00:27:03.906Z,0.68
2022-09-01T00:29:32.023Z,0.30
2022-09-01T00:31:58.689Z,0.40
2022-09-01T00:34:25.495Z,0.28
2022-09-01T00:36:52.235Z,0.10
2022-09-01T00:39:19.059Z,0.80
2022-09-01T00:41:47.313Z,0.68
2022-09-01T00:44:23.231Z,0.60
2022-09-01T00:46:55.157Z,0.65
2022-09-01T00:49:31.363Z,0.50
2022-09-01T00:52:05.035Z,0.90
2022-09-01T00:54:35.257Z,0.70
2022-09-01T00:57:03.659Z,0.50
2022-09-01T00:59:30.684Z,0.47
2022-09-01T01:01:58.196Z,0.30
2022-09-01T01:04:25.721Z,0.85
2022-09-01T01:07:02.894Z,0.32
2022-09-01T01:09:33.698Z,0.60
2022-09-01T01:12:03.749Z,1.00
2022-09-01T01:14:32.398Z,0.93
2022-09-01T01:17:00.668Z,0.70
2022-09-01T01:20:02.715Z,0.55
2022-09-01T01:22:51.110Z,0.52
2022-09-01T01:25:19.057Z,0.50
2022-09-01T01:27:46.222Z,1.05
2022-09-01T01:30:14.922Z,0.65
2022-09-01T01:32:43.253Z,0.55
2022-09-01T01:35:14.709Z,0.50
2022-09-01T01:37:46.589Z,0.63
2022-09-01T01:40:17.691Z,0.40
2022-09-01T01:42:46.558Z,0.53
2022-09-01T01:45:17.267Z,0.35
2022-09-01T01:47:50.327Z,0.25
2022-09-01T01:50:18.155Z,0.40
2022-09-01T01:52:45.771Z,1.20
2022-09-01T01:55:13.274Z,1.13
2022-09-01T01:57:51.249Z,0.80
2022-09-01T02:00:30.062Z,2.20
2022-09-01T02:02:58.779Z,0.50
2022-09-01T02:05:32.266Z,0.60
2022-09-01T02:08:06.703Z,0.35
2022-09-01T02:10:42.175Z,0.25
2022-09-01T02:13:11.980Z,0.95
2022-09-01T02:15:44.439Z,0.65
2022-09-01T02:18:14.181Z,0.70
2022-09-01T02:20:41.958Z,0.37
2022-09-01T02:23:10.657Z,0.77
2022-09-01T02:26:05.130Z,0.93
2022-09-01T02:28:35.015Z,1.73
2022-09-01T02:31:04.970Z,0.38
2022-09-01T02:33:32.679Z,0.43
2022-09-01T02:36:02.254Z,0.55
2022-09-01T02:38:29.868Z,0.20
2022-09-01T02:40:58.510Z,0.30
2022-09-01T02:43:28.450Z,0.55
2022-09-01T02:45:59.851Z,0.30
2022-09-01T02:48:35.869Z,0.38
2022-09-01T02:51:06.119Z,0.57
2022-09-01T02:53:36.418Z,0.70
2022-09-01T02:56:09.476Z,0.70
2022-09-01T02:58:45.875Z,0.20
2022-09-01T03:01:26.261Z,0.35
2022-09-01T03:04:01.174Z,1.38
2022-09-01T03:06:28.697Z,0.30
2022-09-01T03:08:59.630Z,0.75
2022-09-01T03:11:28.190Z,0.28
2022-09-01T03:13:55.414Z,0.85
2022-09-01T03:16:22.777Z,0.45
2022-09-01T03:18:50.714Z,0.30
2022-09-01T03:21:18.695Z,0.40
2022-09-01T03:23:46.532Z,0.70
2022-09-01T03:26:15.022Z,0.50
2022-09-01T03:28:41.889Z,0.30
2022-09-01T03:31:09.189Z,0.25
2022-09-01T03:33:36.910Z,0.22
2022-09-01T03:36:15.460Z,0.50
2022-09-01T03:38:44.060Z,1.02
2022-09-01T03:41:13.323Z,0.98
2022-09-01T03:43:47.124Z,0.43
2022-09-01T03:46:21.800Z,0.47
2022-09-01T03:48:52.834Z,0.77
2022-09-01T03:51:22.820Z,0.20
2022-09-01T03:53:54.569Z,0.10
2022-09-01T03:56:24.754Z,0.60
2022-09-01T03:58:52.160Z,0.40
2022-09-01T04:01:19.823Z,0.40
2022-09-01T04:03:49.426Z,0.38
2022-09-01T04:06:21.999Z,0.77
2022-09-01T04:08:48.840Z,0.73
2022-09-01T04:11:23.563Z,0.60
2022-09-01T04:13:52.728Z,0.30
2022-09-01T04:16:41.684Z,0.60
2022-09-01T04:19:20.139Z,0.45
2022-09-01T04:21:50.245Z,0.47
2022-09-01T04:24:19.127Z,0.40
2022-09-01T04:26:48.916Z,0.73
2022-09-01T04:29:24.172Z,0.52
2022-09-01T04:31:53.667Z,0.35
2022-09-01T04:34:24.176Z,0.20
2022-09-01T04:36:54.488Z,0.55
2022-09-01T04:39:22.654Z,0.75
2022-09-01T04:41:50.609Z,0.65
2022-09-01T04:44:19.178Z,0.38
2022-09-01T04:46:48.369Z,0.43
2022-09-01T04:49:19.702Z,0.45
2022-09-01T04:51:53.364Z,0.30
2022-09-01T04:54:23.010Z,0.57
2022-09-01T04:56:52.429Z,0.45
2022-09-01T04:59:21.887Z,0.20
2022-09-01T05:01:57.539Z,0.50
2022-09-01T05:04:27.815Z,0.80
2022-09-01T05:07:01.299Z,0.40
2022-09-01T05:09:37.414Z,0.25
2022-09-01T05:12:15.950Z,0.95
2022-09-01T05:14:48.958Z,0.15
2022-09-01T05:17:21.670Z,0.52
2022-09-01T05:19:51.187Z,0.45
2022-09-01T05:22:22.389Z,0.57
2022-09-01T05:25:13.353Z,0.35
2022-09-01T05:27:49.737Z,0.22
2022-09-01T05:30:18.932Z,0.30
2022-09-01T05:32:49.032Z,0.20
2022-09-01T05:35:17.269Z,0.60
2022-09-01T05:37:44.575Z,0.55
2022-09-01T05:40:16.340Z,0.60
2022-09-01T05:42:45.345Z,1.30
2022-09-01T05:45:12.225Z,0.30
2022-09-01T05:47:40.119Z,0.55
2022-09-01T05:50:14.243Z,0.30
2022-09-01T05:52:44.727Z,0.28
2022-09-01T05:55:12.048Z,0.35
2022-09-01T05:57:42.023Z,0.45
2022-09-01T06:00:13.573Z,0.73
2022-09-01T06:02:42.859Z,0.40
2022-09-01T06:05:15.851Z,0.30
2022-09-01T06:07:44.329Z,0.10
2022-09-01T06:10:14.482Z,0.65
2022-09-01T06:12:43.341Z,0.63
2022-09-01T06:15:15.920Z,0.47
2022-09-01T06:17:47.282Z,0.35
2022-09-01T06:20:14.641Z,0.50
2022-09-01T06:22:44.820Z,1.00
2022-09-01T06:25:11.851Z,0.40
2022-09-01T06:30:23.703Z,0.75
2022-09-01T06:33:10.572Z,1.08
2022-09-01T06:35:42.067Z,0.80
2022-09-01T06:38:11.090Z,0.32
2022-09-01T06:40:42.436Z,0.20
2022-09-01T06:43:12.533Z,0.43
2022-09-01T06:45:49.903Z,1.30
2022-09-01T06:48:17.900Z,0.30
2022-09-01T06:53:35.253Z,0.80
2022-09-01T06:56:04.937Z,0.30
2022-09-01T06:58:33.346Z,0.52
2022-09-01T07:01:06.769Z,0.57
2022-09-01T07:03:34.143Z,0.20
2022-09-01T07:09:20.945Z,0.75
2022-09-01T07:12:26.752Z,0.43
2022-09-01T07:17:49.103Z,0.90
2022-09-01T07:20:24.541Z,0.65
2022-09-01T07:23:09.208Z,1.00
2022-09-01T07:26:02.338Z,0.52
2022-09-01T07:28:36.904Z,0.65
2022-09-01T07:34:38.499Z,0.60
2022-09-01T07:39:48.411Z,0.82
2022-09-01T07:43:09.018Z,0.82
2022-09-01T07:49:28.442Z,0.80
2022-09-01T07:51:51.792Z,0.60
2022-09-01T07:54:21.278Z,0.45
2022-09-01T07:56:50.338Z,0.47
2022-09-01T07:59:18.394Z,1.08
2022-09-01T08:01:53.307Z,0.40
2022-09-01T08:04:23.208Z,0.45
2022-09-01T08:09:32.772Z,0.40
2022-09-01T08:12:07.458Z,0.30
2022-09-01T08:14:38.657Z,0.80
2022-09-01T08:19:56.271Z,0.88
2022-09-01T08:22:43.064Z,0.77
2022-09-01T08:25:44.032Z,2.05
2022-09-01T08:28:12.713Z,0.95
2022-09-01T08:30:52.051Z,1.27
2022-09-01T08:33:21.830Z,1.10
2022-09-01T08:35:49.607Z,0.73
2022-09-01T08:38:18.496Z,0.40
2022-09-01T08:40:56.097Z,1.60
2022-09-01T08:43:34.193Z,0.90
2022-09-01T08:46:14.379Z,0.68
2022-09-01T08:51:48.622Z,0.30
2022-09-01T08:54:29.774Z,1.02
2022-09-01T08:57:02.474Z,0.55
2022-09-01T08:59:49.503Z,0.80
2022-09-01T09:02:51.559Z,1.27
2022-09-01T09:05:56.697Z,0.63
2022-09-01T09:08:43.697Z,0.70
2022-09-01T09:11:38.842Z,0.93
2022-09-01T09:14:11.387Z,0.75
2022-09-01T09:16:43.882Z,0.45
2022-09-01T09:19:25.379Z,0.75
2022-09-01T09:21:54.958Z,0.40
2022-09-01T09:24:37.076Z,0.80
2022-09-01T09:27:07.102Z,0.73
2022-09-01T09:29:36.747Z,0.95
2022-09-01T09:32:06.673Z,0.45
2022-09-01T09:34:35.172Z,0.52
2022-09-01T09:37:23.376Z,0.77
2022-09-01T09:40:02.742Z,0.40
2022-09-01T09:45:04.368Z,0.50
2022-09-01T09:47:44.650Z,1.00
2022-09-01T09:50:29.634Z,0.45
2022-09-01T09:53:36.899Z,0.40
2022-09-01T09:56:15.566Z,0.50
2022-09-01T09:58:44.006Z,0.50
2022-09-01T10:01:19.736Z,0.50
2022-09-01T10:03:50.439Z,1.33
2022-09-01T10:06:38.598Z,0.60
2022-09-01T10:09:08.360Z,0.50
2022-09-01T10:11:49.566Z,0.55
2022-09-01T10:14:35.945Z,0.60
2022-09-01T10:17:15.952Z,0.43
2022-09-01T10:20:12.310Z,0.52
2022-09-01T10:22:39.788Z,0.63
2022-09-01T10:25:10.382Z,0.55
2022-09-01T10:27:40.470Z,0.55
2022-09-01T10:30:20.425Z,0.60
2022-09-01T10:35:39.703Z,0.98
2022-09-01T10:38:11.937Z,0.10
2022-09-01T10:40:50.082Z,0.38
2022-09-01T10:43:38.057Z,0.50
2022-09-01T10:46:38.579Z,0.50
2022-09-01T10:49:29.660Z,1.30
2022-09-01T10:52:03.325Z,0.60
2022-09-01T10:54:50.931Z,0.30
2022-09-01T10:57:55.862Z,0.40
2022-09-01T11:00:39.845Z,0.60
2022-09-01T11:06:14.890Z,0.47
2022-09-01T11:08:50.819Z,0.35
2022-09-01T11:11:35.520Z,0.70
2022-09-01T11:14:04.286Z,0.43
2022-09-01T11:16:48.067Z,0.30
2022-09-01T11:19:34.987Z,0.60
2022-09-01T11:22:07.658Z,0.40
2022-09-01T11:24:43.012Z,0.20
2022-09-01T11:27:12.145Z,0.60
2022-09-01T11:30:01.201Z,0.40
2022-09-01T11:32:35.345Z,0.28
2022-09-01T11:35:20.077Z,0.38
2022-09-01T11:37:51.381Z,0.63
2022-09-01T11:40:32.510Z,0.30
2022-09-01T11:43:05.501Z,0.50
2022-09-01T11:45:34.463Z,0.85
2022-09-01T11:48:07.147Z,0.47
2022-09-01T11:50:43.115Z,0.43
2022-09-01T11:53:24.475Z,0.35
2022-09-01T11:55:54.798Z,0.52
2022-09-01T12:01:24.210Z,0.65
2022-09-01T12:03:53.466Z,0.38
2022-09-01T12:06:26.477Z,0.80
2022-09-01T12:09:02.307Z,0.47
2022-09-01T12:11:31.863Z,0.40
2022-09-01T12:14:07.660Z,0.57
2022-09-01T12:16:40.159Z,0.30
2022-09-01T12:19:06.964Z,0.47
2022-09-01T12:21:42.963Z,0.20
2022-09-01T12:24:21.994Z,0.35
2022-09-01T12:26:51.404Z,0.20
2022-09-01T12:29:18.321Z,0.25
2022-09-01T12:31:48.287Z,0.20
2022-09-01T12:39:37.518Z,0.20
2022-09-01T12:42:04.559Z,0.45
2022-09-01T12:44:37.211Z,0.30
2022-09-01T12:47:07.631Z,0.38
2022-09-01T12:49:49.972Z,0.30
2022-09-01T12:52:19.971Z,0.20
2022-09-01T12:54:48.773Z,0.60
2022-09-01T12:57:28.681Z,0.40
2022-09-01T13:00:11.371Z,0.82
2022-09-01T13:02:46.558Z,0.30
2022-09-01T13:05:40.902Z,0.47
2022-09-01T13:08:11.813Z,0.30
2022-09-01T13:10:43.449Z,0.45
2022-09-01T13:13:12.510Z,0.40
2022-09-01T13:15:48.199Z,0.45
2022-09-01T13:18:19.282Z,0.38
2022-09-01T13:20:46.237Z,0.63
2022-09-01T13:23:13.299Z,0.57
2022-09-01T13:25:40.857Z,0.32
2022-09-01T13:28:07.871Z,0.60
2022-09-01T13:30:35.213Z,0.43
2022-09-01T13:35:49.945Z,0.50
2022-09-01T13:38:19.983Z,0.28
2022-09-01T13:40:49.119Z,0.40
2022-09-01T13:43:18.206Z,0.50
2022-09-01T13:45:45.652Z,0.50
2022-09-01T13:48:16.641Z,0.35
2022-09-01T13:53:32.393Z,0.30
2022-09-01T13:55:59.165Z,0.47
2022-09-01T13:58:25.924Z,0.60
2022-09-01T14:00:53.901Z,0.50
2022-09-01T14:03:23.228Z,0.30
2022-09-01T14:05:50.654Z,0.30
2022-09-01T14:08:19.742Z,0.60
2022-09-01T14:10:49.041Z,0.43
2022-09-01T14:13:16.106Z,0.50
2022-09-01T14:15:42.957Z,0.63
2022-09-01T14:18:10.158Z,0.57
2022-09-01T14:20:41.090Z,0.45
2022-09-01T14:23:10.495Z,0.55
2022-09-01T14:25:41.661Z,0.30
2022-09-01T14:28:08.458Z,0.50
2022-09-01T14:30:35.236Z,0.43
2022-09-01T14:33:06.224Z,0.57
2022-09-01T14:35:33.744Z,0.73
2022-09-01T14:38:02.711Z,0.30
2022-09-01T14:40:30.156Z,0.40
2022-09-01T14:42:57.299Z,0.65
2022-09-01T14:45:27.146Z,0.40
2022-09-01T14:47:56.020Z,0.30
2022-09-01T14:50:24.004Z,0.68
2022-09-01T14:52:55.843Z,0.30
2022-09-01T14:55:24.873Z,0.45
2022-09-01T14:57:52.462Z,0.30
2022-09-01T15:00:20.150Z,0.50
2022-09-01T15:02:47.485Z,0.40
2022-09-01T15:05:14.965Z,0.80
2022-09-01T15:07:42.858Z,0.98
2022-09-01T15:10:11.238Z,0.47
2022-09-01T15:12:43.308Z,0.25
2022-09-01T15:15:10.424Z,0.40
2022-09-01T15:17:37.226Z,0.30
2022-09-01T15:20:28.423Z,0.40
2022-09-01T15:22:56.524Z,0.40
2022-09-01T15:25:53.719Z,0.20
2022-09-01T15:28:21.165Z,0.32
2022-09-01T15:30:48.493Z,0.40
2022-09-01T15:33:16.412Z,0.20
2022-09-01T15:35:44.827Z,0.55
2022-09-01T15:38:16.225Z,0.35
2022-09-01T15:40:51.977Z,0.82
2022-09-01T15:43:26.361Z,1.08
2022-09-01T15:45:53.083Z,2.58
2022-09-01T15:48:19.774Z,3.10
2022-09-01T15:50:46.570Z,2.80
2022-09-01T15:53:13.456Z,3.05
2022-09-01T15:55:48.018Z,2.70
2022-09-01T16:01:09.651Z,3.50
2022-09-01T16:03:36.578Z,4.70
2022-09-01T16:06:03.535Z,5.57
2022-09-01T16:08:36.559Z,6.53
2022-09-01T16:11:10.003Z,8.10
2022-09-01T16:13:40.988Z,7.10
2022-09-01T16:16:10.644Z,5.53
2022-09-01T16:19:42.966Z,4.00
2022-09-01T16:22:23.054Z,5.40
2022-09-01T16:24:52.755Z,3.40
2022-09-01T16:27:25.286Z,1.67
2022-09-01T16:29:56.799Z,3.78
2022-09-01T16:32:24.013Z,3.80
2022-09-01T16:34:52.238Z,4.20
2022-09-01T16:37:46.996Z,5.25
2022-09-01T16:40:35.128Z,6.30
2022-09-01T16:43:20.209Z,6.95
2022-09-01T16:46:14.882Z,8.10
2022-09-01T16:49:29.160Z,7.07
2022-09-01T16:52:01.984Z,6.60
2022-09-01T16:54:59.898Z,6.10
2022-09-01T16:57:45.559Z,5.50
2022-09-01T17:00:14.107Z,4.40
2022-09-01T17:03:02.499Z,2.92
2022-09-01T17:05:40.962Z,0.90
2022-09-01T17:08:19.626Z,0.70
2022-09-01T17:10:55.037Z,0.40
2022-09-01T17:13:28.273Z,0.40
2022-09-01T17:16:16.545Z,0.73
2022-09-01T17:18:50.260Z,0.43
2022-09-01T17:21:23.223Z,0.30
2022-09-01T17:24:12.333Z,0.32
2022-09-01T17:26:42.526Z,0.43
2022-09-01T17:29:24.400Z,0.30
2022-09-01T17:32:10.621Z,0.43
2022-09-01T17:34:53.836Z,0.32
2022-09-01T17:37:46.507Z,0.20
2022-09-01T17:40:23.478Z,0.20
2022-09-01T17:42:55.712Z,0.40
2022-09-01T17:45:39.713Z,0.63
2022-09-01T17:48:07.930Z,0.35
2022-09-01T17:53:53.499Z,0.65
2022-09-01T17:56:43.746Z,0.30
2022-09-01T17:59:20.901Z,0.20
2022-09-01T18:02:07.142Z,0.20
2022-09-01T18:04:43.230Z,0.55
2022-09-01T18:07:30.158Z,0.30
2022-09-01T18:10:00.526Z,0.38
2022-09-01T18:12:29.775Z,0.20
2022-09-01T18:15:16.299Z,0.30
2022-09-01T18:17:56.335Z,0.20
2022-09-01T18:20:31.359Z,0.38
2022-09-01T18:23:08.865Z,0.30
2022-09-01T18:25:38.716Z,0.35
2022-09-01T18:28:05.535Z,0.30
2022-09-01T18:30:54.958Z,0.30
2022-09-01T18:33:52.761Z,0.73
2022-09-01T18:36:34.603Z,0.20
2022-09-01T18:40:00.081Z,0.28
2022-09-01T18:42:57.878Z,0.47
2022-09-01T18:45:42.574Z,0.22
2022-09-01T18:48:48.547Z,0.30
2022-09-01T18:51:29.845Z,0.17
2022-09-01T18:54:11.401Z,0.20
2022-09-01T18:56:41.758Z,0.82
2022-09-01T18:59:23.809Z,0.55
2022-09-01T19:02:20.556Z,0.63
2022-09-01T19:04:59.622Z,0.20
2022-09-01T19:07:45.269Z,0.50
2022-09-01T19:10:26.154Z,0.40
2022-09-01T19:12:55.502Z,0.73
2022-09-01T19:15:35.267Z,0.35
2022-09-01T19:18:30.435Z,0.20
2022-09-01T19:21:01.602Z,0.20
2022-09-01T19:23:49.743Z,0.10
2022-09-01T19:26:21.442Z,0.20
2022-09-01T19:29:09.338Z,0.35
2022-09-01T19:31:57.596Z,0.90
2022-09-01T19:34:31.413Z,0.38
2022-09-01T19:37:01.113Z,0.40
2022-09-01T19:39:37.837Z,0.50
2022-09-01T19:42:17.297Z,0.20
2022-09-01T19:45:05.152Z,0.23
2022-09-01T19:48:00.292Z,0.30
2022-09-01T19:50:32.042Z,0.20
2022-09-01T19:53:27.425Z,0.40
2022-09-01T19:56:13.347Z,1.33
2022-09-01T19:58:46.542Z,0.55
2022-09-01T20:01:17.636Z,0.28
2022-09-01T20:03:51.463Z,0.30
2022-09-01T20:06:32.187Z,0.40
2022-09-01T20:09:07.838Z,0.35
2022-09-01T20:11:53.761Z,0.20
2022-09-01T20:14:29.825Z,0.20
2022-09-01T20:17:01.622Z,0.35
2022-09-01T20:19:37.500Z,0.52
2022-09-01T20:22:31.191Z,0.30
2022-09-01T20:25:10.215Z,0.20
2022-09-01T20:27:43.223Z,0.45
2022-09-01T20:30:16.080Z,0.52
2022-09-01T20:32:51.861Z,0.28
2022-09-01T20:35:27.771Z,0.40
2022-09-01T20:38:29.786Z,0.22
2022-09-01T20:40:57.162Z,0.15
2022-09-01T20:43:32.258Z,0.55
2022-09-01T20:45:59.267Z,0.38
2022-09-01T20:48:27.209Z,0.50
2022-09-01T20:51:07.778Z,0.20
2022-09-01T20:53:52.851Z,0.68
2022-09-01T20:57:00.719Z,0.10
2022-09-01T20:59:48.921Z,0.77
2022-09-01T21:02:45.276Z,0.32
2022-09-01T21:05:48.654Z,0.13
2022-09-01T21:08:48.901Z,0.90
2022-09-01T21:11:33.355Z,0.20
2022-09-01T21:14:09.059Z,0.28
2022-09-01T21:17:13.652Z,0.20
2022-09-01T21:20:02.801Z,0.20
2022-09-01T21:22:29.854Z,0.55
2022-09-01T21:24:56.787Z,0.17
2022-09-01T21:27:26.956Z,0.20
2022-09-01T21:30:09.561Z,0.20
2022-09-01T21:32:37.069Z,0.30
2022-09-01T21:35:06.142Z,0.20
2022-09-01T21:37:32.857Z,0.73
2022-09-01T21:39:59.559Z,0.30
2022-09-01T21:42:30.710Z,0.50
2022-09-01T21:44:58.429Z,0.35
2022-09-01T21:47:26.091Z,0.30
2022-09-01T21:49:52.794Z,0.20
2022-09-01T21:52:19.678Z,0.50
2022-09-01T21:54:46.651Z,0.28
2022-09-01T21:57:13.382Z,0.43
2022-09-01T21:59:40.097Z,0.57
2022-09-01T22:02:10.126Z,0.28
2022-09-01T22:04:38.271Z,0.13
2022-09-01T22:07:06.640Z,0.50
2022-09-01T22:09:33.637Z,0.43
2022-09-01T22:12:00.339Z,0.22
2022-09-01T22:14:27.899Z,0.52
2022-09-01T22:16:54.823Z,0.10
2022-09-01T22:19:21.674Z,0.20
2022-09-01T22:21:48.731Z,0.20
2022-09-01T22:24:19.095Z,0.30
2022-09-01T22:26:48.060Z,0.40
2022-09-01T22:29:15.026Z,0.75
2022-09-01T22:31:41.740Z,0.32
2022-09-01T22:34:08.447Z,0.20
2022-09-01T22:36:40.850Z,0.13
2022-09-01T22:39:09.105Z,1.17
2022-09-01T22:41:36.217Z,0.45
2022-09-01T22:44:03.777Z,0.20
2022-09-01T22:46:31.626Z,0.63
2022-09-01T22:48:59.894Z,0.10
2022-09-01T22:51:27.009Z,0.28
2022-09-01T22:53:54.605Z,0.50
2022-09-01T22:56:25.554Z,0.63
2022-09-01T23:01:24.866Z,0.30
2022-09-01T23:03:52.146Z,0.20
2022-09-01T23:06:27.966Z,0.25
2022-09-01T23:09:00.704Z,0.20
2022-09-01T23:11:27.975Z,0.40
2022-09-01T23:13:55.749Z,0.20
2022-09-01T23:16:25.091Z,0.10
2022-09-01T23:18:53.310Z,0.55
2022-09-01T23:21:23.237Z,0.30
2022-09-01T23:23:58.221Z,0.50
2022-09-01T23:26:28.112Z,0.20
2022-09-01T23:28:55.291Z,0.35
2022-09-01T23:31:30.362Z,0.55
2022-09-01T23:33:58.143Z,0.22
2022-09-01T23:36:27.858Z,0.50
2022-09-01T23:38:55.371Z,0.30
2022-09-01T23:41:30.957Z,0.15
2022-09-01T23:44:01.256Z,0.20
2022-09-01T23:46:31.403Z,0.22
2022-09-01T23:48:58.249Z,0.45
2022-09-01T23:51:25.635Z,0.10
2022-09-01T23:53:53.480Z,0.20
2022-09-01T23:56:23.874Z,0.47
